KBOK/BOK METAR and TAF weather

Enter ICAO airport designator
Station Type Date Time Source
KBOK METAR 2021/09/27 05:56 UTC NOAA

KBOK 270556Z AUTO 00000KT 10SM OVC009 13/13 A2998 RMK AO2 RAE45 SLP153 P0000 60000 T01330128 10144 20128 56009


Station Type Date Time Source
KBOK Decoded METAR 2021/09/27 05:56 UTC NOAA

Brookings, Brookings Airport, OR, United States (KBOK) 42-04-28N 124-17-24W
Sep 27, 2021 - 01:56 AM EDT / 2021.09.27 0556 UTC
Wind: Calm:0
Visibility: 10 mile(s):0
Sky conditions: overcast
Precipitation last hour: A trace
Temperature: 55.9 F (13.3 C)
Dew Point: 55.0 F (12.8 C)
Relative Humidity: 96%
Pressure (altimeter): 29.98 in. Hg (1015 hPa)
Pressure tendency: 0.03 inches (0.9 hPa) lower than three hours ago
ob: KBOK 270556Z AUTO 00000KT 10SM OVC009 13/13 A2998 RMK AO2 RAE45 SLP153 P0000 60000 T01330128 10144 20128 56009
cycle: 6

Station Type Date Time Source
KBOK TAF UTC NOAA

Error!

Example: see airport list